sensor_id;sensor_type;location;lat;lon;timestamp;temperature;humidity
7684;DHT22;3884;48.616;12.872;2024-01-30T00:01:58;-1.40;99.90
7684;DHT22;3884;48.616;12.872;2024-01-30T00:04:25;-1.40;99.90
7684;DHT22;3884;48.616;12.872;2024-01-30T00:06:52;-1.40;99.90
7684;DHT22;3884;48.616;12.872;2024-01-30T00:09:20;-1.50;1.00
7684;DHT22;3884;48.616;12.872;2024-01-30T00:11:47;-1.50;1.00
7684;DHT22;3884;48.616;12.872;2024-01-30T00:14:14;-1.50;1.00
7684;DHT22;3884;48.616;12.872;2024-01-30T00:16:44;-1.50;99.90
7684;DHT22;3884;48.616;12.872;2024-01-30T00:19:11;-1.60;1.00
7684;DHT22;3884;48.616;12.872;2024-01-30T00:21:38;-1.60;99.90
7684;DHT22;3884;48.616;12.872;2024-01-30T00:24:05;-1.60;99.90
7684;DHT22;3884;48.616;12.872;2024-01-30T00:26:33;-1.60;1.00
7684;DHT22;3884;48.616;12.872;2024-01-30T00:29:00;-1.60;1.00
7684;DHT22;3884;48.616;12.872;2024-01-30T00:31:27;-1.70;99.90
7684;DHT22;3884;48.616;12.872;2024-01-30T00:33:54;-1.80;99.90
7684;DHT22;3884;48.616;12.872;2024-01-30T00:36:21;-1.90;1.00
7684;DHT22;3884;48.616;12.872;2024-01-30T00:38:48;-1.80;1.00
7684;DHT22;3884;48.616;12.872;2024-01-30T00:41:17;-1.80;80.30
7684;DHT22;3884;48.616;12.872;2024-01-30T00:43:45;-1.70;99.90
7684;DHT22;3884;48.616;12.872;2024-01-30T00:46:12;-1.70;99.90
7684;DHT22;3884;48.616;12.872;2024-01-30T00:48:39;-1.70;99.90
7684;DHT22;3884;48.616;12.872;2024-01-30T00:51:06;-1.70;99.90
7684;DHT22;3884;48.616;12.872;2024-01-30T00:53:33;-1.70;99.90
7684;DHT22;3884;48.616;12.872;2024-01-30T00:56:01;-1.70;99.90
7684;DHT22;3884;48.616;12.872;2024-01-30T00:58:29;-1.60;99.90
7684;DHT22;3884;48.616;12.872;2024-01-30T01:01:00;-1.80;99.90
7684;DHT22;3884;48.616;12.872;2024-01-30T01:03:27;-2.00;99.90
7684;DHT22;3884;48.616;12.872;2024-01-30T01:05:53;-1.90;99.90
7684;DHT22;3884;48.616;12.872;2024-01-30T01:08:20;-2.00;99.90
7684;DHT22;3884;48.616;12.872;2024-01-30T01:10:47;-1.90;99.90
7684;DHT22;3884;48.616;12.872;2024-01-30T01:13:13;-1.90;99.90
7684;DHT22;3884;48.616;12.872;2024-01-30T01:15:40;-1.90;99.90
7684;DHT22;3884;48.616;12.872;2024-01-30T01:18:08;-1.90;99.90
7684;DHT22;3884;48.616;12.872;2024-01-30T01:20:35;-1.90;99.90
7684;DHT22;3884;48.616;12.872;2024-01-30T01:23:03;-2.00;99.90
7684;DHT22;3884;48.616;12.872;2024-01-30T01:25:29;-2.00;99.90
7684;DHT22;3884;48.616;12.872;2024-01-30T01:27:56;-2.10;1.00
7684;DHT22;3884;48.616;12.872;2024-01-30T01:30:23;-2.00;1.00
7684;DHT22;3884;48.616;12.872;2024-01-30T01:32:51;-2.00;1.00
7684;DHT22;3884;48.616;12.872;2024-01-30T01:35:22;-2.20;1.00
7684;DHT22;3884;48.616;12.872;2024-01-30T01:37:50;-2.10;1.00
7684;DHT22;3884;48.616;12.872;2024-01-30T01:40:22;-2.00;1.00
7684;DHT22;3884;48.616;12.872;2024-01-30T01:42:50;-2.00;99.90
7684;DHT22;3884;48.616;12.872;2024-01-30T01:45:18;-2.10;99.90
7684;DHT22;3884;48.616;12.872;2024-01-30T01:47:47;-2.10;99.90
7684;DHT22;3884;48.616;12.872;2024-01-30T01:50:18;-2.20;99.90
7684;DHT22;3884;48.616;12.872;2024-01-30T01:52:47;-2.30;99.90
7684;DHT22;3884;48.616;12.872;2024-01-30T01:55:17;-2.30;99.90
7684;DHT22;3884;48.616;12.872;2024-01-30T01:57:50;-2.30;99.90
7684;DHT22;3884;48.616;12.872;2024-01-30T02:00:16;-2.20;99.90
7684;DHT22;3884;48.616;12.872;2024-01-30T02:02:48;-2.20;99.90
7684;DHT22;3884;48.616;12.872;2024-01-30T02:05:17;-2.10;99.90
7684;DHT22;3884;48.616;12.872;2024-01-30T02:07:46;-2.10;99.90
7684;DHT22;3884;48.616;12.872;2024-01-30T02:10:14;-2.10;99.90
7684;DHT22;3884;48.616;12.872;2024-01-30T02:12:41;-2.30;99.90
7684;DHT22;3884;48.616;12.872;2024-01-30T02:15:08;-2.30;99.90
7684;DHT22;3884;48.616;12.872;2024-01-30T02:17:35;-2.30;99.90
7684;DHT22;3884;48.616;12.872;2024-01-30T02:20:04;-2.30;99.90
7684;DHT22;3884;48.616;12.872;2024-01-30T02:22:34;-2.20;99.90
7684;DHT22;3884;48.616;12.872;2024-01-30T02:25:03;-2.20;99.90
7684;DHT22;3884;48.616;12.872;2024-01-30T02:27:31;-2.20;99.90
7684;DHT22;3884;48.616;12.872;2024-01-30T02:30:00;-2.30;99.90
7684;DHT22;3884;48.616;12.872;2024-01-30T02:32:31;-2.40;1.00
7684;DHT22;3884;48.616;12.872;2024-01-30T02:34:58;-2.40;1.00
7684;DHT22;3884;48.616;12.872;2024-01-30T02:37:26;-2.40;1.00
7684;DHT22;3884;48.616;12.872;2024-01-30T02:39:54;-2.40;1.00
7684;DHT22;3884;48.616;12.872;2024-01-30T02:42:22;-2.40;1.00
7684;DHT22;3884;48.616;12.872;2024-01-30T02:44:48;-2.40;1.00
7684;DHT22;3884;48.616;12.872;2024-01-30T02:47:15;-2.50;99.90
7684;DHT22;3884;48.616;12.872;2024-01-30T02:49:42;-2.50;99.90
7684;DHT22;3884;48.616;12.872;2024-01-30T02:52:09;-2.50;99.90
7684;DHT22;3884;48.616;12.872;2024-01-30T02:54:37;-2.50;99.90
7684;DHT22;3884;48.616;12.872;2024-01-30T02:57:06;-2.60;99.90
7684;DHT22;3884;48.616;12.872;2024-01-30T02:59:34;-2.60;99.90
7684;DHT22;3884;48.616;12.872;2024-01-30T03:02:02;-2.40;99.90
7684;DHT22;3884;48.616;12.872;2024-01-30T03:04:29;-2.40;99.90
7684;DHT22;3884;48.616;12.872;2024-01-30T03:06:57;-2.40;99.90
7684;DHT22;3884;48.616;12.872;2024-01-30T03:09:24;-2.50;99.90
7684;DHT22;3884;48.616;12.872;2024-01-30T03:11:52;-2.70;99.90
7684;DHT22;3884;48.616;12.872;2024-01-30T03:14:21;-2.60;99.90
7684;DHT22;3884;48.616;12.872;2024-01-30T03:16:48;-2.50;1.00
7684;DHT22;3884;48.616;12.872;2024-01-30T03:19:16;-2.50;1.00
7684;DHT22;3884;48.616;12.872;2024-01-30T03:21:43;-2.50;1.00
7684;DHT22;3884;48.616;12.872;2024-01-30T03:24:10;-2.50;1.00
7684;DHT22;3884;48.616;12.872;2024-01-30T03:26:37;-2.40;1.00
7684;DHT22;3884;48.616;12.872;2024-01-30T03:29:04;-2.40;1.00
7684;DHT22;3884;48.616;12.872;2024-01-30T03:31:33;-2.40;1.00
7684;DHT22;3884;48.616;12.872;2024-01-30T03:34:00;-2.40;99.90
7684;DHT22;3884;48.616;12.872;2024-01-30T03:36:30;-2.40;99.90
7684;DHT22;3884;48.616;12.872;2024-01-30T03:38:58;-2.50;99.90
7684;DHT22;3884;48.616;12.872;2024-01-30T03:41:25;-2.50;99.90
7684;DHT22;3884;48.616;12.872;2024-01-30T03:43:52;-2.60;99.90
7684;DHT22;3884;48.616;12.872;2024-01-30T03:46:19;-2.60;99.90
7684;DHT22;3884;48.616;12.872;2024-01-30T03:48:47;-2.60;99.90
7684;DHT22;3884;48.616;12.872;2024-01-30T03:51:14;-2.70;99.90
7684;DHT22;3884;48.616;12.872;2024-01-30T03:53:41;-2.80;99.90
7684;DHT22;3884;48.616;12.872;2024-01-30T03:56:08;-2.90;99.90
7684;DHT22;3884;48.616;12.872;2024-01-30T03:58:35;-2.80;1.00
7684;DHT22;3884;48.616;12.872;2024-01-30T04:01:02;-2.70;1.00
7684;DHT22;3884;48.616;12.872;2024-01-30T04:03:30;-2.70;99.90
7684;DHT22;3884;48.616;12.872;2024-01-30T04:05:58;-2.80;99.90
7684;DHT22;3884;48.616;12.872;2024-01-30T04:08:25;-2.90;99.90
7684;DHT22;3884;48.616;12.872;2024-01-30T04:10:52;-2.90;99.90
7684;DHT22;3884;48.616;12.872;2024-01-30T04:13:19;-3.00;99.90
7684;DHT22;3884;48.616;12.872;2024-01-30T04:15:46;-3.00;99.90
7684;DHT22;3884;48.616;12.872;2024-01-30T04:18:13;-2.90;99.90
7684;DHT22;3884;48.616;12.872;2024-01-30T04:20:40;-2.80;99.90
7684;DHT22;3884;48.616;12.872;2024-01-30T04:23:08;-2.90;99.90
7684;DHT22;3884;48.616;12.872;2024-01-30T04:25:35;-2.90;99.90
7684;DHT22;3884;48.616;12.872;2024-01-30T04:28:02;-2.90;99.90
7684;DHT22;3884;48.616;12.872;2024-01-30T04:30:29;-2.90;1.00
7684;DHT22;3884;48.616;12.872;2024-01-30T04:32:56;-2.80;1.00
7684;DHT22;3884;48.616;12.872;2024-01-30T04:35:23;-2.70;1.00
7684;DHT22;3884;48.616;12.872;2024-01-30T04:37:52;-2.60;1.00
7684;DHT22;3884;48.616;12.872;2024-01-30T04:40:20;-2.70;99.90
7684;DHT22;3884;48.616;12.872;2024-01-30T04:42:47;-2.80;99.90
7684;DHT22;3884;48.616;12.872;2024-01-30T04:45:14;-2.80;1.00
7684;DHT22;3884;48.616;12.872;2024-01-30T04:47:41;-2.60;1.00
7684;DHT22;3884;48.616;12.872;2024-01-30T04:50:08;-2.70;99.90
7684;DHT22;3884;48.616;12.872;2024-01-30T04:52:35;-2.60;99.90
7684;DHT22;3884;48.616;12.872;2024-01-30T04:55:02;-2.60;99.90
7684;DHT22;3884;48.616;12.872;2024-01-30T04:57:30;-2.70;99.90
7684;DHT22;3884;48.616;12.872;2024-01-30T04:59:59;-2.80;99.90
7684;DHT22;3884;48.616;12.872;2024-01-30T05:02:26;-2.80;99.90
7684;DHT22;3884;48.616;12.872;2024-01-30T05:04:53;-3.10;99.90
7684;DHT22;3884;48.616;12.872;2024-01-30T05:07:20;-3.20;99.90
7684;DHT22;3884;48.616;12.872;2024-01-30T05:09:47;-3.10;99.90
7684;DHT22;3884;48.616;12.872;2024-01-30T05:12:14;-3.10;99.90
7684;DHT22;3884;48.616;12.872;2024-01-30T05:14:42;-3.00;99.90
7684;DHT22;3884;48.616;12.872;2024-01-30T05:17:09;-3.00;99.90
7684;DHT22;3884;48.616;12.872;2024-01-30T05:19:38;-3.00;99.90
7684;DHT22;3884;48.616;12.872;2024-01-30T05:22:05;-3.10;99.90
7684;DHT22;3884;48.616;12.872;2024-01-30T05:24:31;-3.00;99.90
7684;DHT22;3884;48.616;12.872;2024-01-30T05:26:58;-3.00;99.90
7684;DHT22;3884;48.616;12.872;2024-01-30T05:29:25;-3.00;99.90
7684;DHT22;3884;48.616;12.872;2024-01-30T05:31:53;-2.90;1.00
7684;DHT22;3884;48.616;12.872;2024-01-30T05:34:21;-2.90;1.00
7684;DHT22;3884;48.616;12.872;2024-01-30T05:36:48;-2.90;1.00
7684;DHT22;3884;48.616;12.872;2024-01-30T05:39:14;-3.00;99.90
7684;DHT22;3884;48.616;12.872;2024-01-30T05:41:41;-3.10;99.90
7684;DHT22;3884;48.616;12.872;2024-01-30T05:44:08;-3.30;99.90
7684;DHT22;3884;48.616;12.872;2024-01-30T05:46:35;-3.20;1.00
7684;DHT22;3884;48.616;12.872;2024-01-30T05:49:03;-3.20;1.00
7684;DHT22;3884;48.616;12.872;2024-01-30T05:51:31;-3.30;1.00
7684;DHT22;3884;48.616;12.872;2024-01-30T05:53:58;-3.30;1.00
7684;DHT22;3884;48.616;12.872;2024-01-30T05:56:25;-3.20;1.00
7684;DHT22;3884;48.616;12.872;2024-01-30T05:58:52;-3.20;1.00
7684;DHT22;3884;48.616;12.872;2024-01-30T06:01:19;-3.20;1.00
7684;DHT22;3884;48.616;12.872;2024-01-30T06:03:46;-3.20;1.00
7684;DHT22;3884;48.616;12.872;2024-01-30T06:06:14;-3.10;1.00
7684;DHT22;3884;48.616;12.872;2024-01-30T06:08:41;-3.10;99.90
7684;DHT22;3884;48.616;12.872;2024-01-30T06:11:10;-3.00;99.90
7684;DHT22;3884;48.616;12.872;2024-01-30T06:13:37;-3.00;99.90
7684;DHT22;3884;48.616;12.872;2024-01-30T06:16:04;-2.90;99.90
7684;DHT22;3884;48.616;12.872;2024-01-30T06:18:31;-3.00;99.90
7684;DHT22;3884;48.616;12.872;2024-01-30T06:20:58;-2.90;99.90
7684;DHT22;3884;48.616;12.872;2024-01-30T06:23:26;-2.90;99.90
7684;DHT22;3884;48.616;12.872;2024-01-30T06:25:53;-3.00;99.90
7684;DHT22;3884;48.616;12.872;2024-01-30T06:28:20;-3.00;99.90
7684;DHT22;3884;48.616;12.872;2024-01-30T06:30:48;-3.00;99.90
7684;DHT22;3884;48.616;12.872;2024-01-30T06:33:15;-3.10;99.90
7684;DHT22;3884;48.616;12.872;2024-01-30T06:35:42;-3.10;1.00
7684;DHT22;3884;48.616;12.872;2024-01-30T06:38:11;-3.10;1.00
7684;DHT22;3884;48.616;12.872;2024-01-30T06:40:40;-3.00;1.00
7684;DHT22;3884;48.616;12.872;2024-01-30T06:43:07;-3.00;1.00
7684;DHT22;3884;48.616;12.872;2024-01-30T06:45:34;-3.00;1.00
7684;DHT22;3884;48.616;12.872;2024-01-30T06:48:01;-3.00;1.00
7684;DHT22;3884;48.616;12.872;2024-01-30T06:50:28;-2.90;1.00
7684;DHT22;3884;48.616;12.872;2024-01-30T06:52:55;-3.00;1.00
7684;DHT22;3884;48.616;12.872;2024-01-30T06:55:21;-3.20;99.90
7684;DHT22;3884;48.616;12.872;2024-01-30T06:57:51;-3.20;99.90
7684;DHT22;3884;48.616;12.872;2024-01-30T07:00:18;-3.30;99.90
7684;DHT22;3884;48.616;12.872;2024-01-30T07:02:45;-3.20;99.90
7684;DHT22;3884;48.616;12.872;2024-01-30T07:05:12;-3.10;99.90
7684;DHT22;3884;48.616;12.872;2024-01-30T07:07:40;-3.00;99.90
7684;DHT22;3884;48.616;12.872;2024-01-30T07:10:08;-3.00;99.90
7684;DHT22;3884;48.616;12.872;2024-01-30T07:12:35;-3.00;99.90
7684;DHT22;3884;48.616;12.872;2024-01-30T07:15:04;-3.10;99.90
7684;DHT22;3884;48.616;12.872;2024-01-30T07:17:33;-3.10;99.90
7684;DHT22;3884;48.616;12.872;2024-01-30T07:20:00;-3.20;99.90
7684;DHT22;3884;48.616;12.872;2024-01-30T07:22:29;-3.10;99.90
7684;DHT22;3884;48.616;12.872;2024-01-30T07:24:56;-3.20;99.90
7684;DHT22;3884;48.616;12.872;2024-01-30T07:27:23;-3.20;99.90
7684;DHT22;3884;48.616;12.872;2024-01-30T07:29:50;-3.20;99.90
7684;DHT22;3884;48.616;12.872;2024-01-30T07:32:18;-3.20;1.00
7684;DHT22;3884;48.616;12.872;2024-01-30T07:34:45;-3.00;1.00
7684;DHT22;3884;48.616;12.872;2024-01-30T07:37:12;-3.00;1.00
7684;DHT22;3884;48.616;12.872;2024-01-30T07:39:41;-2.90;1.00
7684;DHT22;3884;48.616;12.872;2024-01-30T07:42:08;-3.00;99.90
7684;DHT22;3884;48.616;12.872;2024-01-30T07:44:35;-3.00;99.90
7684;DHT22;3884;48.616;12.872;2024-01-30T07:47:02;-2.90;99.90
7684;DHT22;3884;48.616;12.872;2024-01-30T07:49:31;-2.80;1.00
7684;DHT22;3884;48.616;12.872;2024-01-30T07:51:58;-2.60;99.90
7684;DHT22;3884;48.616;12.872;2024-01-30T07:54:28;-2.50;99.90
7684;DHT22;3884;48.616;12.872;2024-01-30T07:56:55;-2.50;99.90
7684;DHT22;3884;48.616;12.872;2024-01-30T07:59:22;-2.50;99.90
7684;DHT22;3884;48.616;12.872;2024-01-30T08:01:50;-2.00;99.90
7684;DHT22;3884;48.616;12.872;2024-01-30T08:04:17;-2.30;99.90
7684;DHT22;3884;48.616;12.872;2024-01-30T08:06:50;-2.20;1.00
7684;DHT22;3884;48.616;12.872;2024-01-30T08:09:17;-2.20;1.00
7684;DHT22;3884;48.616;12.872;2024-01-30T08:11:44;-2.10;1.00
7684;DHT22;3884;48.616;12.872;2024-01-30T08:14:11;-2.10;1.00
7684;DHT22;3884;48.616;12.872;2024-01-30T08:16:39;-2.00;1.00
7684;DHT22;3884;48.616;12.872;2024-01-30T08:19:06;-1.90;1.00
7684;DHT22;3884;48.616;12.872;2024-01-30T08:21:34;-1.80;1.00
7684;DHT22;3884;48.616;12.872;2024-01-30T08:24:04;-1.80;1.00
7684;DHT22;3884;48.616;12.872;2024-01-30T08:26:31;-1.80;1.00
7684;DHT22;3884;48.616;12.872;2024-01-30T08:28:59;-1.70;1.00
7684;DHT22;3884;48.616;12.872;2024-01-30T08:31:26;-1.70;1.00
7684;DHT22;3884;48.616;12.872;2024-01-30T08:33:53;-1.60;1.00
7684;DHT22;3884;48.616;12.872;2024-01-30T08:36:20;-1.50;1.00
7684;DHT22;3884;48.616;12.872;2024-01-30T08:38:47;-1.30;1.00
7684;DHT22;3884;48.616;12.872;2024-01-30T08:41:16;-1.30;1.00
7684;DHT22;3884;48.616;12.872;2024-01-30T08:43:43;-1.00;1.00
7684;DHT22;3884;48.616;12.872;2024-01-30T08:46:10;-1.00;1.00
7684;DHT22;3884;48.616;12.872;2024-01-30T08:48:37;-0.80;1.00
7684;DHT22;3884;48.616;12.872;2024-01-30T08:51:04;-0.70;1.00
7684;DHT22;3884;48.616;12.872;2024-01-30T08:53:34;-0.50;1.00
7684;DHT22;3884;48.616;12.872;2024-01-30T08:56:02;-0.30;1.00
7684;DHT22;3884;48.616;12.872;2024-01-30T08:58:30;-0.20;1.00
7684;DHT22;3884;48.616;12.872;2024-01-30T09:00:57;0.10;1.00
7684;DHT22;3884;48.616;12.872;2024-01-30T09:03:24;0.30;1.00
7684;DHT22;3884;48.616;12.872;2024-01-30T09:05:51;0.30;1.00
7684;DHT22;3884;48.616;12.872;2024-01-30T09:08:18;0.50;1.00
7684;DHT22;3884;48.616;12.872;2024-01-30T09:10:45;0.70;99.90
7684;DHT22;3884;48.616;12.872;2024-01-30T09:13:12;0.80;99.90
7684;DHT22;3884;48.616;12.872;2024-01-30T09:15:41;0.80;99.90
7684;DHT22;3884;48.616;12.872;2024-01-30T09:18:09;1.00;99.90
7684;DHT22;3884;48.616;12.872;2024-01-30T09:20:36;1.10;1.00
7684;DHT22;3884;48.616;12.872;2024-01-30T09:23:03;1.30;1.00
7684;DHT22;3884;48.616;12.872;2024-01-30T09:25:30;1.40;1.00
7684;DHT22;3884;48.616;12.872;2024-01-30T09:27:59;1.30;99.90
7684;DHT22;3884;48.616;12.872;2024-01-30T09:30:28;1.40;99.90
7684;DHT22;3884;48.616;12.872;2024-01-30T09:32:56;1.50;1.00
7684;DHT22;3884;48.616;12.872;2024-01-30T09:35:23;1.50;1.00
7684;DHT22;3884;48.616;12.872;2024-01-30T09:37:50;1.60;1.00
7684;DHT22;3884;48.616;12.872;2024-01-30T09:40:18;1.60;99.90
7684;DHT22;3884;48.616;12.872;2024-01-30T09:42:47;1.70;99.90
7684;DHT22;3884;48.616;12.872;2024-01-30T09:45:17;1.80;99.90
7684;DHT22;3884;48.616;12.872;2024-01-30T09:47:46;1.80;99.90
7684;DHT22;3884;48.616;12.872;2024-01-30T09:50:15;2.00;99.90
7684;DHT22;3884;48.616;12.872;2024-01-30T09:52:43;2.00;99.90
7684;DHT22;3884;48.616;12.872;2024-01-30T09:55:10;2.10;99.90
7684;DHT22;3884;48.616;12.872;2024-01-30T09:57:37;2.30;1.00
7684;DHT22;3884;48.616;12.872;2024-01-30T10:00:06;2.30;1.00
7684;DHT22;3884;48.616;12.872;2024-01-30T10:02:40;2.40;1.00
7684;DHT22;3884;48.616;12.872;2024-01-30T10:05:11;2.50;99.90
7684;DHT22;3884;48.616;12.872;2024-01-30T10:07:52;2.50;1.00
7684;DHT22;3884;48.616;12.872;2024-01-30T10:10:21;2.50;1.00
7684;DHT22;3884;48.616;12.872;2024-01-30T10:12:49;2.50;1.00
7684;DHT22;3884;48.616;12.872;2024-01-30T10:15:17;2.70;99.90
7684;DHT22;3884;48.616;12.872;2024-01-30T10:17:45;2.70;1.00
7684;DHT22;3884;48.616;12.872;2024-01-30T10:20:13;2.70;99.90
7684;DHT22;3884;48.616;12.872;2024-01-30T10:22:43;2.70;99.90
7684;DHT22;3884;48.616;12.872;2024-01-30T10:25:13;2.80;1.00
7684;DHT22;3884;48.616;12.872;2024-01-30T10:27:40;2.90;1.00
7684;DHT22;3884;48.616;12.872;2024-01-30T10:30:09;3.20;2.50
7684;DHT22;3884;48.616;12.872;2024-01-30T10:32:37;3.20;1.00
7684;DHT22;3884;48.616;12.872;2024-01-30T10:35:07;3.30;1.00
7684;DHT22;3884;48.616;12.872;2024-01-30T10:37:35;3.30;1.00
7684;DHT22;3884;48.616;12.872;2024-01-30T10:40:04;3.30;1.00
7684;DHT22;3884;48.616;12.872;2024-01-30T10:42:36;3.40;1.00
7684;DHT22;3884;48.616;12.872;2024-01-30T10:45:06;3.50;1.00
7684;DHT22;3884;48.616;12.872;2024-01-30T10:47:35;3.50;1.00
7684;DHT22;3884;48.616;12.872;2024-01-30T10:50:02;3.80;1.00
7684;DHT22;3884;48.616;12.872;2024-01-30T10:52:32;3.70;1.00
7684;DHT22;3884;48.616;12.872;2024-01-30T10:55:04;3.70;1.00
7684;DHT22;3884;48.616;12.872;2024-01-30T10:57:36;3.60;1.00
7684;DHT22;3884;48.616;12.872;2024-01-30T11:00:06;3.70;1.00
7684;DHT22;3884;48.616;12.872;2024-01-30T11:02:38;3.80;1.00
7684;DHT22;3884;48.616;12.872;2024-01-30T11:05:08;4.00;1.00
7684;DHT22;3884;48.616;12.872;2024-01-30T11:07:35;4.00;1.00
7684;DHT22;3884;48.616;12.872;2024-01-30T11:10:05;4.00;1.00
7684;DHT22;3884;48.616;12.872;2024-01-30T11:12:38;4.10;1.00
7684;DHT22;3884;48.616;12.872;2024-01-30T11:15:11;4.20;1.00
7684;DHT22;3884;48.616;12.872;2024-01-30T11:17:47;4.30;1.00
7684;DHT22;3884;48.616;12.872;2024-01-30T11:20:19;4.30;1.00
7684;DHT22;3884;48.616;12.872;2024-01-30T11:22:50;4.30;1.00
7684;DHT22;3884;48.616;12.872;2024-01-30T11:25:21;4.40;1.00
7684;DHT22;3884;48.616;12.872;2024-01-30T11:27:52;4.40;1.00
7684;DHT22;3884;48.616;12.872;2024-01-30T11:30:23;4.40;1.00
7684;DHT22;3884;48.616;12.872;2024-01-30T11:32:59;4.40;1.00
7684;DHT22;3884;48.616;12.872;2024-01-30T11:35:27;4.40;1.00
7684;DHT22;3884;48.616;12.872;2024-01-30T11:37:54;4.50;1.00
7684;DHT22;3884;48.616;12.872;2024-01-30T11:40:21;4.60;1.00
7684;DHT22;3884;48.616;12.872;2024-01-30T11:42:48;4.50;99.90
7684;DHT22;3884;48.616;12.872;2024-01-30T11:45:17;4.50;99.90
7684;DHT22;3884;48.616;12.872;2024-01-30T11:47:44;4.40;1.00
7684;DHT22;3884;48.616;12.872;2024-01-30T11:50:11;4.60;99.90
7684;DHT22;3884;48.616;12.872;2024-01-30T11:52:38;4.70;99.90
7684;DHT22;3884;48.616;12.872;2024-01-30T11:55:06;4.70;99.90
7684;DHT22;3884;48.616;12.872;2024-01-30T11:57:39;4.70;99.90
7684;DHT22;3884;48.616;12.872;2024-01-30T12:00:14;4.80;99.90
7684;DHT22;3884;48.616;12.872;2024-01-30T12:02:43;4.80;99.90
7684;DHT22;3884;48.616;12.872;2024-01-30T12:05:10;4.90;99.90
7684;DHT22;3884;48.616;12.872;2024-01-30T12:07:54;4.80;99.90
7684;DHT22;3884;48.616;12.872;2024-01-30T12:10:25;4.90;99.90
7684;DHT22;3884;48.616;12.872;2024-01-30T12:12:54;4.90;99.90
7684;DHT22;3884;48.616;12.872;2024-01-30T12:15:25;4.80;99.90
7684;DHT22;3884;48.616;12.872;2024-01-30T12:18:04;4.70;99.90
7684;DHT22;3884;48.616;12.872;2024-01-30T12:20:31;4.70;1.00
7684;DHT22;3884;48.616;12.872;2024-01-30T12:22:58;4.60;1.00
7684;DHT22;3884;48.616;12.872;2024-01-30T12:25:27;4.70;1.00
7684;DHT22;3884;48.616;12.872;2024-01-30T12:27:54;4.60;1.00
7684;DHT22;3884;48.616;12.872;2024-01-30T12:30:22;4.70;1.00
7684;DHT22;3884;48.616;12.872;2024-01-30T12:32:51;4.80;1.00
7684;DHT22;3884;48.616;12.872;2024-01-30T12:41:31;4.80;1.00
7684;DHT22;3884;48.616;12.872;2024-01-30T12:44:02;4.80;1.00
7684;DHT22;3884;48.616;12.872;2024-01-30T12:46:29;4.80;1.00
7684;DHT22;3884;48.616;12.872;2024-01-30T12:49:00;4.80;1.00
7684;DHT22;3884;48.616;12.872;2024-01-30T12:51:30;4.80;1.00
7684;DHT22;3884;48.616;12.872;2024-01-30T12:54:04;4.80;1.00
7684;DHT22;3884;48.616;12.872;2024-01-30T12:56:32;4.80;1.00
7684;DHT22;3884;48.616;12.872;2024-01-30T12:59:02;4.90;1.00
7684;DHT22;3884;48.616;12.872;2024-01-30T13:01:29;4.90;1.00
7684;DHT22;3884;48.616;12.872;2024-01-30T13:03:57;5.00;1.00
7684;DHT22;3884;48.616;12.872;2024-01-30T13:06:27;5.00;1.00
7684;DHT22;3884;48.616;12.872;2024-01-30T13:08:55;5.00;1.00
7684;DHT22;3884;48.616;12.872;2024-01-30T13:11:24;5.10;1.00
7684;DHT22;3884;48.616;12.872;2024-01-30T13:13:51;5.10;1.00
7684;DHT22;3884;48.616;12.872;2024-01-30T13:16:19;5.20;1.00
7684;DHT22;3884;48.616;12.872;2024-01-30T13:18:47;5.20;1.00
7684;DHT22;3884;48.616;12.872;2024-01-30T13:21:15;5.10;1.00
7684;DHT22;3884;48.616;12.872;2024-01-30T13:23:43;5.20;1.00
7684;DHT22;3884;48.616;12.872;2024-01-30T13:26:10;5.30;1.00
7684;DHT22;3884;48.616;12.872;2024-01-30T13:28:42;5.20;1.00
7684;DHT22;3884;48.616;12.872;2024-01-30T13:31:16;5.30;1.00
7684;DHT22;3884;48.616;12.872;2024-01-30T13:33:57;5.30;1.00
7684;DHT22;3884;48.616;12.872;2024-01-30T13:36:26;5.40;1.00
7684;DHT22;3884;48.616;12.872;2024-01-30T13:39:03;5.40;1.00
7684;DHT22;3884;48.616;12.872;2024-01-30T13:41:33;5.40;1.00
7684;DHT22;3884;48.616;12.872;2024-01-30T13:44:03;5.50;1.00
7684;DHT22;3884;48.616;12.872;2024-01-30T13:46:31;5.50;1.00
7684;DHT22;3884;48.616;12.872;2024-01-30T13:49:00;5.50;1.00
7684;DHT22;3884;48.616;12.872;2024-01-30T13:51:29;5.30;1.00
7684;DHT22;3884;48.616;12.872;2024-01-30T13:53:57;6.00;1.00
7684;DHT22;3884;48.616;12.872;2024-01-30T13:56:25;5.60;1.00
7684;DHT22;3884;48.616;12.872;2024-01-30T13:58:52;5.70;1.00
7684;DHT22;3884;48.616;12.872;2024-01-30T14:05:17;5.80;1.00
7684;DHT22;3884;48.616;12.872;2024-01-30T14:07:47;5.50;1.00
7684;DHT22;3884;48.616;12.872;2024-01-30T14:10:20;6.10;1.00
7684;DHT22;3884;48.616;12.872;2024-01-30T14:12:51;5.90;1.00
7684;DHT22;3884;48.616;12.872;2024-01-30T14:15:19;5.80;1.00
7684;DHT22;3884;48.616;12.872;2024-01-30T14:17:50;5.70;1.00
7684;DHT22;3884;48.616;12.872;2024-01-30T14:20:23;5.80;1.00
7684;DHT22;3884;48.616;12.872;2024-01-30T14:23:25;5.80;1.00
7684;DHT22;3884;48.616;12.872;2024-01-30T14:25:58;5.80;1.00
7684;DHT22;3884;48.616;12.872;2024-01-30T14:28:29;5.80;1.00
7684;DHT22;3884;48.616;12.872;2024-01-30T14:30:58;5.80;99.90
7684;DHT22;3884;48.616;12.872;2024-01-30T14:33:59;5.80;99.90
7684;DHT22;3884;48.616;12.872;2024-01-30T14:36:31;5.80;99.90
7684;DHT22;3884;48.616;12.872;2024-01-30T14:40:14;6.10;99.90
7684;DHT22;3884;48.616;12.872;2024-01-30T14:42:39;6.10;99.90
7684;DHT22;3884;48.616;12.872;2024-01-30T14:45:08;5.90;99.90
7684;DHT22;3884;48.616;12.872;2024-01-30T14:47:38;6.30;99.90
7684;DHT22;3884;48.616;12.872;2024-01-30T14:50:08;5.90;99.90
7684;DHT22;3884;48.616;12.872;2024-01-30T14:52:38;5.90;99.90
7684;DHT22;3884;48.616;12.872;2024-01-30T14:55:07;5.90;99.90
7684;DHT22;3884;48.616;12.872;2024-01-30T14:57:49;6.10;99.90
7684;DHT22;3884;48.616;12.872;2024-01-30T15:00:18;5.70;99.90
7684;DHT22;3884;48.616;12.872;2024-01-30T15:02:47;5.70;99.90
7684;DHT22;3884;48.616;12.872;2024-01-30T15:05:17;5.60;99.90
7684;DHT22;3884;48.616;12.872;2024-01-30T15:07:47;5.50;99.90
7684;DHT22;3884;48.616;12.872;2024-01-30T15:10:14;5.40;1.00
7684;DHT22;3884;48.616;12.872;2024-01-30T15:12:41;5.40;99.90
7684;DHT22;3884;48.616;12.872;2024-01-30T15:15:08;5.30;1.00
7684;DHT22;3884;48.616;12.872;2024-01-30T15:17:35;5.30;1.00
7684;DHT22;3884;48.616;12.872;2024-01-30T15:20:03;5.20;1.00
7684;DHT22;3884;48.616;12.872;2024-01-30T15:22:33;4.90;1.00
7684;DHT22;3884;48.616;12.872;2024-01-30T15:25:13;4.80;1.00
7684;DHT22;3884;48.616;12.872;2024-01-30T15:27:47;4.70;1.00
7684;DHT22;3884;48.616;12.872;2024-01-30T15:30:16;4.60;1.00
7684;DHT22;3884;48.616;12.872;2024-01-30T15:32:45;4.60;1.00
7684;DHT22;3884;48.616;12.872;2024-01-30T15:35:15;4.30;1.00
7684;DHT22;3884;48.616;12.872;2024-01-30T15:37:43;4.30;1.00
7684;DHT22;3884;48.616;12.872;2024-01-30T15:43:09;3.80;99.90
7684;DHT22;3884;48.616;12.872;2024-01-30T15:45:36;3.60;99.90
7684;DHT22;3884;48.616;12.872;2024-01-30T15:48:04;3.60;99.90
7684;DHT22;3884;48.616;12.872;2024-01-30T15:50:31;3.50;99.90
7684;DHT22;3884;48.616;12.872;2024-01-30T15:52:58;3.50;1.00
7684;DHT22;3884;48.616;12.872;2024-01-30T15:55:25;3.50;1.00
7684;DHT22;3884;48.616;12.872;2024-01-30T15:57:53;3.50;1.00
7684;DHT22;3884;48.616;12.872;2024-01-30T16:00:24;3.50;99.90
7684;DHT22;3884;48.616;12.872;2024-01-30T16:03:03;3.40;1.00
7684;DHT22;3884;48.616;12.872;2024-01-30T16:05:30;3.50;1.00
7684;DHT22;3884;48.616;12.872;2024-01-30T16:08:06;3.40;1.00
7684;DHT22;3884;48.616;12.872;2024-01-30T16:10:33;3.60;1.00
7684;DHT22;3884;48.616;12.872;2024-01-30T16:13:02;3.50;99.90
7684;DHT22;3884;48.616;12.872;2024-01-30T16:15:31;3.30;99.90
7684;DHT22;3884;48.616;12.872;2024-01-30T16:17:58;3.60;99.90
7684;DHT22;3884;48.616;12.872;2024-01-30T16:20:26;3.80;1.00
7684;DHT22;3884;48.616;12.872;2024-01-30T16:22:57;2.80;1.00